sensor_id;sensor_type;location;lat;lon;timestamp;temperature;humidity
2389;DHT22;1205;47.984;7.668;2023-09-30T00:00:14;18.60;99.90
2389;DHT22;1205;47.984;7.668;2023-09-30T00:02:40;18.60;99.90
2389;DHT22;1205;47.984;7.668;2023-09-30T00:05:06;18.60;99.90
2389;DHT22;1205;47.984;7.668;2023-09-30T00:07:32;18.60;99.90
2389;DHT22;1205;47.984;7.668;2023-09-30T00:09:58;18.60;99.90
2389;DHT22;1205;47.984;7.668;2023-09-30T00:12:24;18.50;99.90
2389;DHT22;1205;47.984;7.668;2023-09-30T00:14:50;18.50;99.90
2389;DHT22;1205;47.984;7.668;2023-09-30T00:17:15;18.40;99.90
2389;DHT22;1205;47.984;7.668;2023-09-30T00:19:41;18.50;99.90
2389;DHT22;1205;47.984;7.668;2023-09-30T00:22:07;18.40;99.90
2389;DHT22;1205;47.984;7.668;2023-09-30T00:24:33;18.40;99.90
2389;DHT22;1205;47.984;7.668;2023-09-30T00:26:59;18.40;99.90
2389;DHT22;1205;47.984;7.668;2023-09-30T00:29:25;18.30;99.90
2389;DHT22;1205;47.984;7.668;2023-09-30T00:31:51;18.30;99.90
2389;DHT22;1205;47.984;7.668;2023-09-30T00:34:17;18.30;99.90
2389;DHT22;1205;47.984;7.668;2023-09-30T00:36:43;18.10;99.90
2389;DHT22;1205;47.984;7.668;2023-09-30T00:39:08;18.20;99.90
2389;DHT22;1205;47.984;7.668;2023-09-30T00:41:35;18.20;99.90
2389;DHT22;1205;47.984;7.668;2023-09-30T00:44:01;18.20;99.90
2389;DHT22;1205;47.984;7.668;2023-09-30T00:46:29;18.20;99.90
2389;DHT22;1205;47.984;7.668;2023-09-30T00:48:57;18.20;99.90
2389;DHT22;1205;47.984;7.668;2023-09-30T00:51:23;18.10;99.90
2389;DHT22;1205;47.984;7.668;2023-09-30T00:53:51;18.20;99.90
2389;DHT22;1205;47.984;7.668;2023-09-30T00:56:18;18.10;99.90
2389;DHT22;1205;47.984;7.668;2023-09-30T00:58:48;18.20;99.90
2389;DHT22;1205;47.984;7.668;2023-09-30T01:01:16;18.20;99.90
2389;DHT22;1205;47.984;7.668;2023-09-30T01:03:42;18.20;99.90
2389;DHT22;1205;47.984;7.668;2023-09-30T01:06:07;18.10;99.90
2389;DHT22;1205;47.984;7.668;2023-09-30T01:08:33;18.00;99.90
2389;DHT22;1205;47.984;7.668;2023-09-30T01:11:00;17.90;99.90
2389;DHT22;1205;47.984;7.668;2023-09-30T01:13:36;18.00;99.90
2389;DHT22;1205;47.984;7.668;2023-09-30T01:16:06;18.00;99.90
2389;DHT22;1205;47.984;7.668;2023-09-30T01:18:32;18.00;99.90
2389;DHT22;1205;47.984;7.668;2023-09-30T01:21:03;17.90;99.90
2389;DHT22;1205;47.984;7.668;2023-09-30T01:23:30;17.80;99.90
2389;DHT22;1205;47.984;7.668;2023-09-30T01:25:56;17.80;99.90
2389;DHT22;1205;47.984;7.668;2023-09-30T01:28:22;17.80;99.90
2389;DHT22;1205;47.984;7.668;2023-09-30T01:30:48;17.80;99.90
2389;DHT22;1205;47.984;7.668;2023-09-30T01:33:14;17.80;99.90
2389;DHT22;1205;47.984;7.668;2023-09-30T01:35:42;17.90;99.90
2389;DHT22;1205;47.984;7.668;2023-09-30T01:38:07;17.90;99.90
2389;DHT22;1205;47.984;7.668;2023-09-30T01:40:33;17.80;99.90
2389;DHT22;1205;47.984;7.668;2023-09-30T01:42:58;17.90;99.90
2389;DHT22;1205;47.984;7.668;2023-09-30T01:45:24;18.00;99.90
2389;DHT22;1205;47.984;7.668;2023-09-30T01:47:50;17.90;99.90
2389;DHT22;1205;47.984;7.668;2023-09-30T01:50:15;17.80;99.90
2389;DHT22;1205;47.984;7.668;2023-09-30T01:52:41;17.60;99.90
2389;DHT22;1205;47.984;7.668;2023-09-30T01:55:06;17.60;99.90
2389;DHT22;1205;47.984;7.668;2023-09-30T01:57:32;17.50;99.90
2389;DHT22;1205;47.984;7.668;2023-09-30T01:59:58;17.40;99.90
2389;DHT22;1205;47.984;7.668;2023-09-30T02:02:23;17.40;99.90
2389;DHT22;1205;47.984;7.668;2023-09-30T02:04:49;17.40;99.90
2389;DHT22;1205;47.984;7.668;2023-09-30T02:07:14;17.40;99.90
2389;DHT22;1205;47.984;7.668;2023-09-30T02:09:40;17.30;99.90
2389;DHT22;1205;47.984;7.668;2023-09-30T02:12:06;17.30;99.90
2389;DHT22;1205;47.984;7.668;2023-09-30T02:14:33;17.30;99.90
2389;DHT22;1205;47.984;7.668;2023-09-30T02:16:59;17.20;99.90
2389;DHT22;1205;47.984;7.668;2023-09-30T02:19:24;17.30;99.90
2389;DHT22;1205;47.984;7.668;2023-09-30T02:21:51;17.40;99.90
2389;DHT22;1205;47.984;7.668;2023-09-30T02:24:17;17.30;99.90
2389;DHT22;1205;47.984;7.668;2023-09-30T02:26:42;17.10;99.90
2389;DHT22;1205;47.984;7.668;2023-09-30T02:29:08;17.20;99.90
2389;DHT22;1205;47.984;7.668;2023-09-30T02:31:34;17.20;99.90
2389;DHT22;1205;47.984;7.668;2023-09-30T02:34:00;17.20;99.90
2389;DHT22;1205;47.984;7.668;2023-09-30T02:36:27;17.20;99.90
2389;DHT22;1205;47.984;7.668;2023-09-30T02:38:53;17.20;99.90
2389;DHT22;1205;47.984;7.668;2023-09-30T02:41:18;17.10;99.90
2389;DHT22;1205;47.984;7.668;2023-09-30T02:43:44;17.10;99.90
2389;DHT22;1205;47.984;7.668;2023-09-30T02:46:10;17.00;99.90
2389;DHT22;1205;47.984;7.668;2023-09-30T02:48:35;17.00;99.90
2389;DHT22;1205;47.984;7.668;2023-09-30T02:51:01;17.00;99.90
2389;DHT22;1205;47.984;7.668;2023-09-30T02:53:26;16.80;99.90
2389;DHT22;1205;47.984;7.668;2023-09-30T02:55:53;16.70;99.90
2389;DHT22;1205;47.984;7.668;2023-09-30T02:58:23;16.60;99.90
2389;DHT22;1205;47.984;7.668;2023-09-30T03:00:49;16.70;99.90
2389;DHT22;1205;47.984;7.668;2023-09-30T03:03:15;16.60;99.90
2389;DHT22;1205;47.984;7.668;2023-09-30T03:05:41;16.70;99.90
2389;DHT22;1205;47.984;7.668;2023-09-30T03:08:07;16.60;99.90
2389;DHT22;1205;47.984;7.668;2023-09-30T03:10:32;16.50;99.90
2389;DHT22;1205;47.984;7.668;2023-09-30T03:12:58;16.60;99.90
2389;DHT22;1205;47.984;7.668;2023-09-30T03:15:27;16.30;99.90
2389;DHT22;1205;47.984;7.668;2023-09-30T03:17:54;16.10;99.90
2389;DHT22;1205;47.984;7.668;2023-09-30T03:20:21;16.10;99.90
2389;DHT22;1205;47.984;7.668;2023-09-30T03:22:47;16.10;99.90
2389;DHT22;1205;47.984;7.668;2023-09-30T03:25:15;16.00;99.90
2389;DHT22;1205;47.984;7.668;2023-09-30T03:27:43;16.10;99.90
2389;DHT22;1205;47.984;7.668;2023-09-30T03:30:09;16.10;99.90
2389;DHT22;1205;47.984;7.668;2023-09-30T03:32:38;16.30;99.90
2389;DHT22;1205;47.984;7.668;2023-09-30T03:35:08;16.30;99.90
2389;DHT22;1205;47.984;7.668;2023-09-30T03:37:39;16.30;99.90
2389;DHT22;1205;47.984;7.668;2023-09-30T03:40:07;16.20;99.90
2389;DHT22;1205;47.984;7.668;2023-09-30T03:42:46;16.30;99.90
2389;DHT22;1205;47.984;7.668;2023-09-30T03:45:13;16.20;99.90
2389;DHT22;1205;47.984;7.668;2023-09-30T03:47:40;16.20;99.90
2389;DHT22;1205;47.984;7.668;2023-09-30T03:50:06;16.30;99.90
2389;DHT22;1205;47.984;7.668;2023-09-30T03:52:39;16.40;99.90
2389;DHT22;1205;47.984;7.668;2023-09-30T03:55:12;16.40;99.90
2389;DHT22;1205;47.984;7.668;2023-09-30T03:57:38;16.30;99.90
2389;DHT22;1205;47.984;7.668;2023-09-30T04:00:04;16.30;99.90
2389;DHT22;1205;47.984;7.668;2023-09-30T04:02:41;16.20;99.90
2389;DHT22;1205;47.984;7.668;2023-09-30T04:05:08;16.00;99.90
2389;DHT22;1205;47.984;7.668;2023-09-30T04:07:36;16.10;99.90
2389;DHT22;1205;47.984;7.668;2023-09-30T04:10:02;16.20;99.90
2389;DHT22;1205;47.984;7.668;2023-09-30T04:12:29;16.10;99.90
2389;DHT22;1205;47.984;7.668;2023-09-30T04:14:55;16.00;99.90
2389;DHT22;1205;47.984;7.668;2023-09-30T04:17:20;16.20;99.90
2389;DHT22;1205;47.984;7.668;2023-09-30T04:19:48;16.10;99.90
2389;DHT22;1205;47.984;7.668;2023-09-30T04:22:17;16.00;99.90
2389;DHT22;1205;47.984;7.668;2023-09-30T04:24:42;16.00;99.90
2389;DHT22;1205;47.984;7.668;2023-09-30T04:27:08;16.00;99.90
2389;DHT22;1205;47.984;7.668;2023-09-30T04:29:34;15.70;99.90
2389;DHT22;1205;47.984;7.668;2023-09-30T04:32:00;15.60;99.90
2389;DHT22;1205;47.984;7.668;2023-09-30T04:34:25;15.50;99.90
2389;DHT22;1205;47.984;7.668;2023-09-30T04:36:53;15.40;99.90
2389;DHT22;1205;47.984;7.668;2023-09-30T04:39:19;15.50;99.90
2389;DHT22;1205;47.984;7.668;2023-09-30T04:41:44;15.60;99.90
2389;DHT22;1205;47.984;7.668;2023-09-30T04:44:12;15.80;99.90
2389;DHT22;1205;47.984;7.668;2023-09-30T04:46:37;15.70;99.90
2389;DHT22;1205;47.984;7.668;2023-09-30T04:49:12;15.40;99.90
2389;DHT22;1205;47.984;7.668;2023-09-30T04:51:38;15.30;99.90
2389;DHT22;1205;47.984;7.668;2023-09-30T04:54:05;15.10;99.90
2389;DHT22;1205;47.984;7.668;2023-09-30T04:56:34;15.00;99.90
2389;DHT22;1205;47.984;7.668;2023-09-30T04:59:00;15.00;99.90
2389;DHT22;1205;47.984;7.668;2023-09-30T05:01:26;15.10;99.90
2389;DHT22;1205;47.984;7.668;2023-09-30T05:03:52;15.10;99.90
2389;DHT22;1205;47.984;7.668;2023-09-30T05:06:18;15.10;99.90
2389;DHT22;1205;47.984;7.668;2023-09-30T05:08:44;15.10;99.90
2389;DHT22;1205;47.984;7.668;2023-09-30T05:11:10;15.10;99.90
2389;DHT22;1205;47.984;7.668;2023-09-30T05:13:35;15.20;99.90
2389;DHT22;1205;47.984;7.668;2023-09-30T05:16:02;15.40;99.90
2389;DHT22;1205;47.984;7.668;2023-09-30T05:18:28;15.50;99.90
2389;DHT22;1205;47.984;7.668;2023-09-30T05:20:55;15.40;99.90
2389;DHT22;1205;47.984;7.668;2023-09-30T05:23:20;15.50;99.90
2389;DHT22;1205;47.984;7.668;2023-09-30T05:25:46;15.40;99.90
2389;DHT22;1205;47.984;7.668;2023-09-30T05:28:11;15.60;99.90
2389;DHT22;1205;47.984;7.668;2023-09-30T05:30:39;15.60;99.90
2389;DHT22;1205;47.984;7.668;2023-09-30T05:33:06;15.70;99.90
2389;DHT22;1205;47.984;7.668;2023-09-30T05:35:32;15.80;99.90
2389;DHT22;1205;47.984;7.668;2023-09-30T05:37:58;15.90;99.90
2389;DHT22;1205;47.984;7.668;2023-09-30T05:40:23;16.00;99.90
2389;DHT22;1205;47.984;7.668;2023-09-30T05:42:56;16.00;99.90
2389;DHT22;1205;47.984;7.668;2023-09-30T05:45:26;15.90;99.90
2389;DHT22;1205;47.984;7.668;2023-09-30T05:47:53;16.00;99.90
2389;DHT22;1205;47.984;7.668;2023-09-30T05:50:20;15.80;99.90
2389;DHT22;1205;47.984;7.668;2023-09-30T05:52:51;15.70;99.90
2389;DHT22;1205;47.984;7.668;2023-09-30T05:55:17;15.90;99.90
2389;DHT22;1205;47.984;7.668;2023-09-30T05:57:46;15.90;99.90
2389;DHT22;1205;47.984;7.668;2023-09-30T06:00:12;16.10;99.90
2389;DHT22;1205;47.984;7.668;2023-09-30T06:02:56;15.90;99.90
2389;DHT22;1205;47.984;7.668;2023-09-30T06:05:22;15.60;99.90
2389;DHT22;1205;47.984;7.668;2023-09-30T06:07:48;15.50;99.90
2389;DHT22;1205;47.984;7.668;2023-09-30T06:10:14;15.90;99.90
2389;DHT22;1205;47.984;7.668;2023-09-30T06:12:51;16.00;99.90
2389;DHT22;1205;47.984;7.668;2023-09-30T06:15:24;16.10;99.90
2389;DHT22;1205;47.984;7.668;2023-09-30T06:17:53;15.90;99.90
2389;DHT22;1205;47.984;7.668;2023-09-30T06:20:20;15.70;99.90
2389;DHT22;1205;47.984;7.668;2023-09-30T06:22:48;15.70;99.90
2389;DHT22;1205;47.984;7.668;2023-09-30T06:25:15;15.60;99.90
2389;DHT22;1205;47.984;7.668;2023-09-30T06:27:45;15.60;99.90
2389;DHT22;1205;47.984;7.668;2023-09-30T06:30:12;15.50;99.90
2389;DHT22;1205;47.984;7.668;2023-09-30T06:32:39;15.40;99.90
2389;DHT22;1205;47.984;7.668;2023-09-30T06:35:06;15.50;99.90
2389;DHT22;1205;47.984;7.668;2023-09-30T06:37:32;15.60;99.90
2389;DHT22;1205;47.984;7.668;2023-09-30T06:39:58;15.60;99.90
2389;DHT22;1205;47.984;7.668;2023-09-30T06:42:36;15.70;99.90
2389;DHT22;1205;47.984;7.668;2023-09-30T06:45:02;15.70;99.90
2389;DHT22;1205;47.984;7.668;2023-09-30T06:47:31;15.80;99.90
2389;DHT22;1205;47.984;7.668;2023-09-30T06:50:03;15.80;99.90
2389;DHT22;1205;47.984;7.668;2023-09-30T06:52:40;15.80;99.90
2389;DHT22;1205;47.984;7.668;2023-09-30T06:55:07;15.90;99.90
2389;DHT22;1205;47.984;7.668;2023-09-30T06:57:35;15.90;99.90
2389;DHT22;1205;47.984;7.668;2023-09-30T07:00:11;16.00;99.90
2389;DHT22;1205;47.984;7.668;2023-09-30T07:02:37;16.00;99.90
2389;DHT22;1205;47.984;7.668;2023-09-30T07:05:11;16.10;99.90
2389;DHT22;1205;47.984;7.668;2023-09-30T07:07:38;16.20;99.90
2389;DHT22;1205;47.984;7.668;2023-09-30T07:10:06;16.30;99.90
2389;DHT22;1205;47.984;7.668;2023-09-30T07:12:31;16.40;99.90
2389;DHT22;1205;47.984;7.668;2023-09-30T07:15:04;16.60;99.90
2389;DHT22;1205;47.984;7.668;2023-09-30T07:17:30;16.70;99.90
2389;DHT22;1205;47.984;7.668;2023-09-30T07:19:56;16.70;99.90
2389;DHT22;1205;47.984;7.668;2023-09-30T07:22:22;16.70;99.90
2389;DHT22;1205;47.984;7.668;2023-09-30T07:24:48;16.80;99.90
2389;DHT22;1205;47.984;7.668;2023-09-30T07:27:13;16.80;99.90
2389;DHT22;1205;47.984;7.668;2023-09-30T07:29:39;16.90;99.90
2389;DHT22;1205;47.984;7.668;2023-09-30T07:32:07;17.00;99.90
2389;DHT22;1205;47.984;7.668;2023-09-30T07:34:33;17.10;99.90
2389;DHT22;1205;47.984;7.668;2023-09-30T07:36:58;17.20;99.90
2389;DHT22;1205;47.984;7.668;2023-09-30T07:39:24;17.30;99.90
2389;DHT22;1205;47.984;7.668;2023-09-30T07:41:49;17.50;99.90
2389;DHT22;1205;47.984;7.668;2023-09-30T07:44:15;17.60;99.90
2389;DHT22;1205;47.984;7.668;2023-09-30T07:46:40;17.50;99.90
2389;DHT22;1205;47.984;7.668;2023-09-30T07:49:08;17.50;99.90
2389;DHT22;1205;47.984;7.668;2023-09-30T07:51:34;17.40;99.90
2389;DHT22;1205;47.984;7.668;2023-09-30T07:54:01;17.60;99.90
2389;DHT22;1205;47.984;7.668;2023-09-30T07:56:26;17.80;99.90
2389;DHT22;1205;47.984;7.668;2023-09-30T07:58:52;17.90;99.90
2389;DHT22;1205;47.984;7.668;2023-09-30T08:01:18;17.90;99.90
2389;DHT22;1205;47.984;7.668;2023-09-30T08:03:44;17.90;99.90
2389;DHT22;1205;47.984;7.668;2023-09-30T08:06:10;18.00;99.90
2389;DHT22;1205;47.984;7.668;2023-09-30T08:08:36;18.00;99.90
2389;DHT22;1205;47.984;7.668;2023-09-30T08:11:02;18.10;99.90
2389;DHT22;1205;47.984;7.668;2023-09-30T08:13:27;18.10;99.90
2389;DHT22;1205;47.984;7.668;2023-09-30T08:15:54;18.20;99.90
2389;DHT22;1205;47.984;7.668;2023-09-30T08:18:21;18.30;99.90
2389;DHT22;1205;47.984;7.668;2023-09-30T08:20:47;18.40;99.90
2389;DHT22;1205;47.984;7.668;2023-09-30T08:23:13;18.30;99.90
2389;DHT22;1205;47.984;7.668;2023-09-30T08:25:38;18.20;99.90
2389;DHT22;1205;47.984;7.668;2023-09-30T08:28:04;18.30;99.90
2389;DHT22;1205;47.984;7.668;2023-09-30T08:30:32;18.30;99.90
2389;DHT22;1205;47.984;7.668;2023-09-30T08:32:58;18.40;99.90
2389;DHT22;1205;47.984;7.668;2023-09-30T08:35:24;18.60;99.90
2389;DHT22;1205;47.984;7.668;2023-09-30T08:37:50;18.80;99.90
2389;DHT22;1205;47.984;7.668;2023-09-30T08:40:20;19.00;99.90
2389;DHT22;1205;47.984;7.668;2023-09-30T08:42:50;18.90;99.90
2389;DHT22;1205;47.984;7.668;2023-09-30T08:45:16;19.00;99.90
2389;DHT22;1205;47.984;7.668;2023-09-30T08:47:43;19.10;99.90
2389;DHT22;1205;47.984;7.668;2023-09-30T08:50:09;19.10;99.90
2389;DHT22;1205;47.984;7.668;2023-09-30T08:52:40;19.30;99.90
2389;DHT22;1205;47.984;7.668;2023-09-30T08:55:07;19.30;99.90
2389;DHT22;1205;47.984;7.668;2023-09-30T08:57:36;19.40;99.90
2389;DHT22;1205;47.984;7.668;2023-09-30T09:00:02;19.40;99.90
2389;DHT22;1205;47.984;7.668;2023-09-30T09:02:28;19.60;99.90
2389;DHT22;1205;47.984;7.668;2023-09-30T09:04:54;19.60;99.90
2389;DHT22;1205;47.984;7.668;2023-09-30T09:07:20;19.50;99.90
2389;DHT22;1205;47.984;7.668;2023-09-30T09:10:08;19.70;99.90
2389;DHT22;1205;47.984;7.668;2023-09-30T09:12:37;19.80;99.90
2389;DHT22;1205;47.984;7.668;2023-09-30T09:15:06;19.90;99.90
2389;DHT22;1205;47.984;7.668;2023-09-30T09:17:42;19.80;99.90
2389;DHT22;1205;47.984;7.668;2023-09-30T09:20:16;19.80;99.90
2389;DHT22;1205;47.984;7.668;2023-09-30T09:22:46;19.70;99.90
2389;DHT22;1205;47.984;7.668;2023-09-30T09:25:11;19.60;99.90
2389;DHT22;1205;47.984;7.668;2023-09-30T09:27:37;19.70;99.90
2389;DHT22;1205;47.984;7.668;2023-09-30T09:30:19;19.60;99.90
2389;DHT22;1205;47.984;7.668;2023-09-30T09:33:11;19.80;99.90
2389;DHT22;1205;47.984;7.668;2023-09-30T09:35:37;19.80;99.90
2389;DHT22;1205;47.984;7.668;2023-09-30T09:38:04;19.90;99.90
2389;DHT22;1205;47.984;7.668;2023-09-30T09:40:34;19.90;99.90
2389;DHT22;1205;47.984;7.668;2023-09-30T09:43:01;19.90;99.90
2389;DHT22;1205;47.984;7.668;2023-09-30T09:45:29;19.90;99.90
2389;DHT22;1205;47.984;7.668;2023-09-30T09:47:58;19.90;99.90
2389;DHT22;1205;47.984;7.668;2023-09-30T09:50:24;19.90;99.90
2389;DHT22;1205;47.984;7.668;2023-09-30T09:52:51;20.00;99.90
2389;DHT22;1205;47.984;7.668;2023-09-30T09:55:22;19.80;99.90
2389;DHT22;1205;47.984;7.668;2023-09-30T09:57:49;19.90;99.90
2389;DHT22;1205;47.984;7.668;2023-09-30T10:00:17;19.90;99.90
2389;DHT22;1205;47.984;7.668;2023-09-30T10:02:44;19.90;99.90
2389;DHT22;1205;47.984;7.668;2023-09-30T10:05:12;20.00;99.90
2389;DHT22;1205;47.984;7.668;2023-09-30T10:07:42;19.90;99.90
2389;DHT22;1205;47.984;7.668;2023-09-30T10:10:14;20.00;99.90
2389;DHT22;1205;47.984;7.668;2023-09-30T10:12:41;20.00;99.90
2389;DHT22;1205;47.984;7.668;2023-09-30T10:18:10;20.20;99.90
2389;DHT22;1205;47.984;7.668;2023-09-30T10:20:41;20.20;99.90
2389;DHT22;1205;47.984;7.668;2023-09-30T10:25:49;20.20;99.90
2389;DHT22;1205;47.984;7.668;2023-09-30T10:36:30;20.30;99.90
2389;DHT22;1205;47.984;7.668;2023-09-30T10:39:00;20.40;99.90
2389;DHT22;1205;47.984;7.668;2023-09-30T10:46:54;20.50;99.90
2389;DHT22;1205;47.984;7.668;2023-09-30T10:51:56;20.60;99.90
2389;DHT22;1205;47.984;7.668;2023-09-30T10:54:30;20.70;99.90
2389;DHT22;1205;47.984;7.668;2023-09-30T10:56:58;20.70;99.90
2389;DHT22;1205;47.984;7.668;2023-09-30T10:59:28;20.90;99.90
2389;DHT22;1205;47.984;7.668;2023-09-30T11:01:55;20.80;99.90
2389;DHT22;1205;47.984;7.668;2023-09-30T11:04:22;20.80;99.90
2389;DHT22;1205;47.984;7.668;2023-09-30T11:06:48;20.80;99.90
2389;DHT22;1205;47.984;7.668;2023-09-30T11:09:22;20.80;99.90
2389;DHT22;1205;47.984;7.668;2023-09-30T11:11:50;20.80;99.90
2389;DHT22;1205;47.984;7.668;2023-09-30T11:14:29;20.90;99.90
2389;DHT22;1205;47.984;7.668;2023-09-30T11:16:57;20.90;99.90
2389;DHT22;1205;47.984;7.668;2023-09-30T11:19:23;20.90;99.90
2389;DHT22;1205;47.984;7.668;2023-09-30T11:21:51;20.90;99.90
2389;DHT22;1205;47.984;7.668;2023-09-30T11:24:17;21.10;99.90
2389;DHT22;1205;47.984;7.668;2023-09-30T11:26:44;21.10;99.90
2389;DHT22;1205;47.984;7.668;2023-09-30T11:29:11;21.20;99.10
2389;DHT22;1205;47.984;7.668;2023-09-30T11:31:38;21.30;96.80
2389;DHT22;1205;47.984;7.668;2023-09-30T11:34:03;21.30;96.30
2389;DHT22;1205;47.984;7.668;2023-09-30T11:36:38;21.20;96.00
2389;DHT22;1205;47.984;7.668;2023-09-30T11:39:05;21.40;95.80
2389;DHT22;1205;47.984;7.668;2023-09-30T11:41:35;21.40;97.30
2389;DHT22;1205;47.984;7.668;2023-09-30T11:44:07;21.30;96.90
2389;DHT22;1205;47.984;7.668;2023-09-30T11:47:00;21.30;98.10
2389;DHT22;1205;47.984;7.668;2023-09-30T11:49:40;21.50;98.40
2389;DHT22;1205;47.984;7.668;2023-09-30T11:52:10;21.60;96.10
2389;DHT22;1205;47.984;7.668;2023-09-30T11:54:38;21.60;95.30
2389;DHT22;1205;47.984;7.668;2023-09-30T11:57:07;21.70;96.80
2389;DHT22;1205;47.984;7.668;2023-09-30T11:59:35;21.80;96.90
2389;DHT22;1205;47.984;7.668;2023-09-30T12:02:01;22.00;96.60
2389;DHT22;1205;47.984;7.668;2023-09-30T12:04:29;22.10;97.20
2389;DHT22;1205;47.984;7.668;2023-09-30T12:06:55;22.30;96.80
2389;DHT22;1205;47.984;7.668;2023-09-30T12:09:22;22.20;96.40
2389;DHT22;1205;47.984;7.668;2023-09-30T12:11:51;22.20;96.00
2389;DHT22;1205;47.984;7.668;2023-09-30T12:14:17;22.30;95.40
2389;DHT22;1205;47.984;7.668;2023-09-30T12:16:42;22.40;95.40
2389;DHT22;1205;47.984;7.668;2023-09-30T12:19:11;22.40;94.30
2389;DHT22;1205;47.984;7.668;2023-09-30T12:21:36;22.60;94.70
2389;DHT22;1205;47.984;7.668;2023-09-30T12:24:02;22.70;93.20
2389;DHT22;1205;47.984;7.668;2023-09-30T12:26:30;22.60;92.10
2389;DHT22;1205;47.984;7.668;2023-09-30T12:28:56;22.80;92.80
2389;DHT22;1205;47.984;7.668;2023-09-30T12:31:22;23.00;94.30
2389;DHT22;1205;47.984;7.668;2023-09-30T12:33:48;23.00;93.90
2389;DHT22;1205;47.984;7.668;2023-09-30T12:36:16;23.00;93.80
2389;DHT22;1205;47.984;7.668;2023-09-30T12:38:42;22.90;93.00
2389;DHT22;1205;47.984;7.668;2023-09-30T12:41:08;22.90;93.70
2389;DHT22;1205;47.984;7.668;2023-09-30T12:43:34;22.90;93.30
2389;DHT22;1205;47.984;7.668;2023-09-30T12:45:59;22.80;92.50
2389;DHT22;1205;47.984;7.668;2023-09-30T12:48:25;22.70;92.70
2389;DHT22;1205;47.984;7.668;2023-09-30T12:50:50;22.70;92.80
2389;DHT22;1205;47.984;7.668;2023-09-30T12:53:16;22.70;92.70
2389;DHT22;1205;47.984;7.668;2023-09-30T12:55:42;22.80;92.20
2389;DHT22;1205;47.984;7.668;2023-09-30T12:58:07;23.00;92.30
2389;DHT22;1205;47.984;7.668;2023-09-30T13:00:34;23.20;91.10
2389;DHT22;1205;47.984;7.668;2023-09-30T13:03:01;23.30;90.90
2389;DHT22;1205;47.984;7.668;2023-09-30T13:05:27;23.50;90.40
2389;DHT22;1205;47.984;7.668;2023-09-30T13:07:55;23.40;90.30
2389;DHT22;1205;47.984;7.668;2023-09-30T13:10:21;23.60;91.70
2389;DHT22;1205;47.984;7.668;2023-09-30T13:12:47;23.60;91.00
2389;DHT22;1205;47.984;7.668;2023-09-30T13:15:15;23.60;90.70
2389;DHT22;1205;47.984;7.668;2023-09-30T13:17:41;23.70;92.40
2389;DHT22;1205;47.984;7.668;2023-09-30T13:20:07;24.00;91.20
2389;DHT22;1205;47.984;7.668;2023-09-30T13:22:35;24.10;90.90
2389;DHT22;1205;47.984;7.668;2023-09-30T13:25:04;24.00;90.50
2389;DHT22;1205;47.984;7.668;2023-09-30T13:27:31;24.20;91.80
2389;DHT22;1205;47.984;7.668;2023-09-30T13:29:56;24.30;91.10
2389;DHT22;1205;47.984;7.668;2023-09-30T13:32:24;24.30;91.20
2389;DHT22;1205;47.984;7.668;2023-09-30T13:34:51;24.10;90.90
2389;DHT22;1205;47.984;7.668;2023-09-30T13:37:17;24.10;90.60
2389;DHT22;1205;47.984;7.668;2023-09-30T13:39:42;24.10;90.50
2389;DHT22;1205;47.984;7.668;2023-09-30T13:42:08;24.20;91.30
2389;DHT22;1205;47.984;7.668;2023-09-30T13:44:34;24.20;90.70
2389;DHT22;1205;47.984;7.668;2023-09-30T13:47:00;24.10;91.20
2389;DHT22;1205;47.984;7.668;2023-09-30T13:49:25;24.30;90.60
2389;DHT22;1205;47.984;7.668;2023-09-30T13:51:51;24.30;89.40
2389;DHT22;1205;47.984;7.668;2023-09-30T13:54:16;24.10;89.80
2389;DHT22;1205;47.984;7.668;2023-09-30T13:56:42;24.10;90.40
2389;DHT22;1205;47.984;7.668;2023-09-30T13:59:09;24.30;90.60
2389;DHT22;1205;47.984;7.668;2023-09-30T14:01:35;24.10;91.10
2389;DHT22;1205;47.984;7.668;2023-09-30T14:04:01;24.10;91.30
2389;DHT22;1205;47.984;7.668;2023-09-30T14:06:27;23.90;91.20
2389;DHT22;1205;47.984;7.668;2023-09-30T14:08:54;23.80;90.60
2389;DHT22;1205;47.984;7.668;2023-09-30T14:11:20;23.80;90.90
2389;DHT22;1205;47.984;7.668;2023-09-30T14:13:46;23.60;90.80
2389;DHT22;1205;47.984;7.668;2023-09-30T14:16:12;23.60;90.80
2389;DHT22;1205;47.984;7.668;2023-09-30T14:18:37;23.60;90.20
2389;DHT22;1205;47.984;7.668;2023-09-30T14:21:05;23.50;90.60
2389;DHT22;1205;47.984;7.668;2023-09-30T14:23:30;23.40;91.80
2389;DHT22;1205;47.984;7.668;2023-09-30T14:25:56;23.30;91.80
2389;DHT22;1205;47.984;7.668;2023-09-30T14:28:22;23.40;91.10
2389;DHT22;1205;47.984;7.668;2023-09-30T14:30:48;23.30;91.50
2389;DHT22;1205;47.984;7.668;2023-09-30T14:33:16;23.20;91.60
2389;DHT22;1205;47.984;7.668;2023-09-30T14:35:41;23.10;91.90
2389;DHT22;1205;47.984;7.668;2023-09-30T14:38:09;23.10;91.90
2389;DHT22;1205;47.984;7.668;2023-09-30T14:40:37;23.10;92.30
2389;DHT22;1205;47.984;7.668;2023-09-30T14:43:05;23.10;92.10
2389;DHT22;1205;47.984;7.668;2023-09-30T14:45:31;23.00;92.30
2389;DHT22;1205;47.984;7.668;2023-09-30T14:47:56;23.00;92.40
2389;DHT22;1205;47.984;7.668;2023-09-30T14:50:22;22.90;92.20
2389;DHT22;1205;47.984;7.668;2023-09-30T14:52:48;22.80;92.50
2389;DHT22;1205;47.984;7.668;2023-09-30T14:55:14;22.90;92.10
2389;DHT22;1205;47.984;7.668;2023-09-30T14:57:41;22.80;92.00
2389;DHT22;1205;47.984;7.668;2023-09-30T15:00:07;22.80;92.30
2389;DHT22;1205;47.984;7.668;2023-09-30T15:02:33;22.80;91.90
2389;DHT22;1205;47.984;7.668;2023-09-30T15:04:59;22.70;91.90
2389;DHT22;1205;47.984;7.668;2023-09-30T15:07:24;22.70;92.70
2389;DHT22;1205;47.984;7.668;2023-09-30T15:09:50;22.70;92.10
2389;DHT22;1205;47.984;7.668;2023-09-30T15:12:17;22.80;92.40
2389;DHT22;1205;47.984;7.668;2023-09-30T15:14:43;22.70;91.90
2389;DHT22;1205;47.984;7.668;2023-09-30T15:17:10;22.60;91.60
2389;DHT22;1205;47.984;7.668;2023-09-30T15:19:35;22.60;91.90
2389;DHT22;1205;47.984;7.668;2023-09-30T15:22:01;22.60;92.00
2389;DHT22;1205;47.984;7.668;2023-09-30T15:24:27;22.60;91.70
2389;DHT22;1205;47.984;7.668;2023-09-30T15:26:52;22.50;92.00
2389;DHT22;1205;47.984;7.668;2023-09-30T15:29:18;22.50;92.00
2389;DHT22;1205;47.984;7.668;2023-09-30T15:31:43;22.40;91.60
2389;DHT22;1205;47.984;7.668;2023-09-30T15:34:09;22.30;92.30
2389;DHT22;1205;47.984;7.668;2023-09-30T15:36:36;22.30;91.80
2389;DHT22;1205;47.984;7.668;2023-09-30T15:39:02;22.30;92.20
2389;DHT22;1205;47.984;7.668;2023-09-30T15:41:28;22.30;92.50
2389;DHT22;1205;47.984;7.668;2023-09-30T15:43:55;22.40;92.20
2389;DHT22;1205;47.984;7.668;2023-09-30T15:46:23;22.30;92.40
2389;DHT22;1205;47.984;7.668;2023-09-30T15:48:48;22.30;92.30
2389;DHT22;1205;47.984;7.668;2023-09-30T15:51:14;22.30;92.30
2389;DHT22;1205;47.984;7.668;2023-09-30T15:53:40;22.20;92.70
2389;DHT22;1205;47.984;7.668;2023-09-30T15:56:06;22.20;92.70
2389;DHT22;1205;47.984;7.668;2023-09-30T15:58:32;22.10;92.50
2389;DHT22;1205;47.984;7.668;2023-09-30T16:00:57;22.10;92.60
2389;DHT22;1205;47.984;7.668;2023-09-30T16:03:23;22.10;92.80
2389;DHT22;1205;47.984;7.668;2023-09-30T16:05:49;22.10;93.00
2389;DHT22;1205;47.984;7.668;2023-09-30T16:08:15;22.00;92.80
2389;DHT22;1205;47.984;7.668;2023-09-30T16:10:41;22.00;93.60
2389;DHT22;1205;47.984;7.668;2023-09-30T16:13:08;21.90;93.30
2389;DHT22;1205;47.984;7.668;2023-09-30T16:15:37;21.90;93.50
2389;DHT22;1205;47.984;7.668;2023-09-30T16:18:03;21.90;93.60
2389;DHT22;1205;47.984;7.668;2023-09-30T16:20:28;21.90;93.60
2389;DHT22;1205;47.984;7.668;2023-09-30T16:22:54;21.80;93.40